createdAt,value
2018-06-11T00:02:12.564Z,20.90
2018-06-11T00:04:43.272Z,20.90
2018-06-11T00:07:13.429Z,20.90
2018-06-11T00:09:42.701Z,20.80
2018-06-11T00:12:11.708Z,20.80
2018-06-11T00:14:42.093Z,20.80
2018-06-11T00:17:11.827Z,20.80
2018-06-11T00:19:40.838Z,20.80
2018-06-11T00:22:10.337Z,20.70
2018-06-11T00:24:39.851Z,20.70
2018-06-11T00:27:17.427Z,20.70
2018-06-11T00:29:55.832Z,20.80
2018-06-11T00:32:25.202Z,20.90
2018-06-11T00:34:55.182Z,20.90
2018-06-11T00:37:24.646Z,20.80
2018-06-11T00:39:53.868Z,20.90
2018-06-11T00:42:23.038Z,20.90
2018-06-11T00:47:25.060Z,20.90
2018-06-11T00:49:54.668Z,20.90
2018-06-11T00:52:25.386Z,20.80
2018-06-11T00:54:55.245Z,20.70
2018-06-11T00:57:24.828Z,20.80
2018-06-11T00:59:54.272Z,20.80
2018-06-11T01:02:24.165Z,20.70
2018-06-11T01:04:54.043Z,20.60
2018-06-11T01:07:24.374Z,20.50
2018-06-11T01:09:54.978Z,20.30
2018-06-11T01:12:25.130Z,20.20
2018-06-11T01:14:56.502Z,20.20
2018-06-11T01:17:26.843Z,20.20
2018-06-11T01:19:56.741Z,20.20
2018-06-11T01:22:26.285Z,20.20
2018-06-11T01:27:25.525Z,20.20
2018-06-11T01:30:01.775Z,20.20
2018-06-11T01:32:31.701Z,20.10
2018-06-11T01:35:03.448Z,20.20
2018-06-11T01:37:34.273Z,20.20
2018-06-11T01:40:03.803Z,20.00
2018-06-11T01:42:33.225Z,20.00
2018-06-11T01:45:02.776Z,19.90
2018-06-11T01:47:32.239Z,19.70
2018-06-11T01:50:01.375Z,19.70
2018-06-11T01:52:30.735Z,19.70
2018-06-11T01:54:59.874Z,19.70
2018-06-11T01:57:29.246Z,19.60
2018-06-11T01:59:58.883Z,19.50
2018-06-11T02:02:28.279Z,19.40
2018-06-11T02:04:58.149Z,19.40
2018-06-11T02:07:27.655Z,19.40
2018-06-11T02:09:56.917Z,19.40
2018-06-11T02:12:26.568Z,19.40
2018-06-11T02:14:55.677Z,19.40
2018-06-11T02:17:25.025Z,19.40
2018-06-11T02:19:54.607Z,19.40
2018-06-11T02:22:31.210Z,19.40
2018-06-11T02:25:00.228Z,19.40
2018-06-11T02:27:29.786Z,19.40
2018-06-11T02:29:59.243Z,19.30
2018-06-11T02:32:30.457Z,19.30
2018-06-11T02:35:03.893Z,19.30
2018-06-11T02:37:32.976Z,19.30
2018-06-11T02:40:05.290Z,19.20
2018-06-11T02:42:34.590Z,19.20
2018-06-11T02:45:04.004Z,19.10
2018-06-11T02:47:33.300Z,19.00
2018-06-11T02:50:02.811Z,19.00
2018-06-11T02:52:37.005Z,19.00
2018-06-11T02:55:06.540Z,19.00
2018-06-11T02:57:35.806Z,18.90
2018-06-11T03:00:05.379Z,18.90
2018-06-11T03:02:34.499Z,18.80
2018-06-11T03:05:05.245Z,18.90
2018-06-11T03:07:43.618Z,18.90
2018-06-11T03:10:13.305Z,18.90
2018-06-11T03:15:11.689Z,18.80
2018-06-11T03:17:41.113Z,18.70
2018-06-11T03:20:10.528Z,18.70
2018-06-11T03:22:44.932Z,18.60
2018-06-11T03:25:14.423Z,18.60
2018-06-11T03:27:43.750Z,18.70
2018-06-11T03:32:41.978Z,18.60
2018-06-11T03:35:17.869Z,18.60
2018-06-11T03:37:47.199Z,18.60
2018-06-11T03:40:17.778Z,18.50
2018-06-11T03:42:47.208Z,18.50
2018-06-11T03:45:16.573Z,18.40
2018-06-11T03:47:45.965Z,18.40
2018-06-11T03:50:15.221Z,18.40
2018-06-11T03:52:44.679Z,18.40
2018-06-11T03:55:13.998Z,18.40
2018-06-11T03:57:43.868Z,18.40
2018-06-11T04:00:13.654Z,18.40
2018-06-11T04:05:13.783Z,18.30
2018-06-11T04:07:42.855Z,18.40
2018-06-11T04:10:12.245Z,18.40
2018-06-11T04:12:41.388Z,18.30
2018-06-11T04:15:10.726Z,18.30
2018-06-11T04:17:40.164Z,18.30
2018-06-11T04:20:09.221Z,18.30
2018-06-11T04:22:38.256Z,18.10
2018-06-11T04:25:09.482Z,18.10
2018-06-11T04:27:38.972Z,18.30
2018-06-11T04:30:08.566Z,18.20
2018-06-11T04:32:38.441Z,18.20
2018-06-11T04:35:08.035Z,18.20
2018-06-11T04:37:37.382Z,18.20
2018-06-11T04:40:07.301Z,18.20
2018-06-11T04:42:36.603Z,18.20
2018-06-11T04:45:07.668Z,18.30
2018-06-11T04:47:37.193Z,18.30
2018-06-11T04:50:06.517Z,18.30
2018-06-11T04:52:36.275Z,18.40
2018-06-11T04:55:05.977Z,18.60
2018-06-11T04:57:35.226Z,18.60
2018-06-11T05:00:04.369Z,18.70
2018-06-11T05:02:33.701Z,18.80
2018-06-11T05:05:02.852Z,18.90
2018-06-11T05:07:32.327Z,19.00
2018-06-11T05:10:01.451Z,19.00
2018-06-11T05:12:30.604Z,18.90
2018-06-11T05:15:00.266Z,19.00
2018-06-11T05:17:29.486Z,19.10
2018-06-11T05:20:01.437Z,19.00
2018-06-11T05:22:33.148Z,18.90
2018-06-11T05:25:02.339Z,19.00
2018-06-11T05:27:31.879Z,19.00
2018-06-11T05:30:01.693Z,18.90
2018-06-11T05:32:32.142Z,19.00
2018-06-11T05:35:01.246Z,19.30
2018-06-11T05:37:31.318Z,19.30
2018-06-11T05:40:00.703Z,19.30
2018-06-11T05:42:30.380Z,19.30
2018-06-11T05:45:00.383Z,19.50
2018-06-11T05:47:36.493Z,19.70
2018-06-11T05:50:10.766Z,19.80
2018-06-11T05:52:39.970Z,20.00
2018-06-11T05:55:10.588Z,19.90
2018-06-11T05:57:40.201Z,19.90
2018-06-11T06:00:10.626Z,20.10
2018-06-11T06:02:40.449Z,20.20
2018-06-11T06:05:10.347Z,20.20
2018-06-11T06:07:40.881Z,20.30
2018-06-11T06:10:10.257Z,20.20
2018-06-11T06:12:46.697Z,20.10
2018-06-11T06:15:19.574Z,20.00
2018-06-11T06:17:48.828Z,20.00
2018-06-11T06:20:18.144Z,20.20
2018-06-11T06:22:48.356Z,20.60
2018-06-11T06:25:17.361Z,21.30
2018-06-11T06:27:47.811Z,21.90
2018-06-11T06:30:29.260Z,22.40
2018-06-11T06:32:59.470Z,22.50
2018-06-11T06:35:28.638Z,22.60
2018-06-11T06:37:57.983Z,22.90
2018-06-11T06:40:27.301Z,22.80
2018-06-11T06:42:56.653Z,23.10
2018-06-11T06:45:26.815Z,23.10
2018-06-11T06:47:56.310Z,23.40
2018-06-11T06:50:25.887Z,23.60
2018-06-11T06:52:59.972Z,23.80
2018-06-11T06:55:42.758Z,24.40
2018-06-11T06:58:12.270Z,24.80
2018-06-11T07:00:41.873Z,25.20
2018-06-11T07:03:16.085Z,25.80
2018-06-11T07:05:51.424Z,25.40
2018-06-11T07:08:21.569Z,24.10
2018-06-11T07:10:50.844Z,23.60
2018-06-11T07:13:26.327Z,24.30
2018-06-11T07:15:56.752Z,25.10
2018-06-11T07:18:26.824Z,25.90
2018-06-11T07:21:05.356Z,25.90
2018-06-11T07:23:35.968Z,25.60
2018-06-11T07:26:10.736Z,25.30
2018-06-11T07:28:42.970Z,24.70
2018-06-11T07:31:24.947Z,24.60
2018-06-11T07:34:08.742Z,24.20
2018-06-11T07:36:39.672Z,24.70
2018-06-11T07:39:10.464Z,24.90
2018-06-11T07:41:51.532Z,25.50
2018-06-11T07:44:22.947Z,26.10
2018-06-11T07:46:55.470Z,25.40
2018-06-11T07:49:26.932Z,25.50
2018-06-11T07:52:10.403Z,25.60
2018-06-11T07:54:45.228Z,25.40
2018-06-11T07:57:14.806Z,25.50
2018-06-11T07:59:53.269Z,25.40
2018-06-11T08:02:31.308Z,25.90
2018-06-11T08:05:01.991Z,25.60
2018-06-11T08:07:31.757Z,25.60
2018-06-11T08:10:01.240Z,26.00
2018-06-11T08:12:35.642Z,26.20
2018-06-11T08:15:05.272Z,26.90
2018-06-11T08:17:34.655Z,26.80
2018-06-11T08:20:10.016Z,26.50
2018-06-11T08:22:53.580Z,25.60
2018-06-11T08:25:34.508Z,24.90
2018-06-11T08:31:10.056Z,25.40
2018-06-11T08:33:43.433Z,26.00
2018-06-11T08:36:18.269Z,25.90
2018-06-11T08:38:49.804Z,25.20
2018-06-11T08:41:22.969Z,25.10
2018-06-11T08:43:52.742Z,25.10
2018-06-11T08:46:30.674Z,25.10
2018-06-11T08:49:11.736Z,25.00
2018-06-11T08:51:42.884Z,24.90
2018-06-11T08:54:12.400Z,24.50
2018-06-11T08:57:14.750Z,24.10
2018-06-11T08:59:48.746Z,23.90
2018-06-11T09:02:19.383Z,24.20
2018-06-11T09:04:55.239Z,24.20
2018-06-11T09:07:33.760Z,24.30
2018-06-11T09:10:13.394Z,24.60
2018-06-11T09:12:44.418Z,24.80
2018-06-11T09:15:14.437Z,24.80
2018-06-11T09:17:44.193Z,24.70
2018-06-11T09:20:14.512Z,25.00
2018-06-11T09:22:43.662Z,25.30
2018-06-11T09:25:17.188Z,25.50
2018-06-11T09:27:48.456Z,25.40
2018-06-11T09:30:21.714Z,25.70
2018-06-11T09:32:51.827Z,26.70
2018-06-11T09:35:22.275Z,27.00
2018-06-11T09:37:52.505Z,26.70
2018-06-11T09:40:30.710Z,26.70
2018-06-11T09:43:02.820Z,27.50
2018-06-11T09:45:32.628Z,28.20
2018-06-11T09:48:02.394Z,27.90
2018-06-11T09:50:31.785Z,28.60
2018-06-11T09:53:10.369Z,29.10
2018-06-11T09:55:39.676Z,28.60
2018-06-11T09:58:20.603Z,28.40
2018-06-11T10:01:02.582Z,28.20
2018-06-11T10:03:47.134Z,27.50
2018-06-11T10:06:17.357Z,27.50
2018-06-11T10:08:47.262Z,28.40
2018-06-11T10:11:17.092Z,29.20
2018-06-11T10:13:46.620Z,29.90
2018-06-11T10:16:16.567Z,30.30
2018-06-11T10:18:55.617Z,30.00
2018-06-11T10:21:37.169Z,29.30
2018-06-11T10:24:06.920Z,30.00
2018-06-11T10:26:46.156Z,30.30
2018-06-11T10:29:23.500Z,30.90
2018-06-11T10:31:59.555Z,30.50
2018-06-11T10:34:43.762Z,30.80
2018-06-11T10:37:18.806Z,30.90
2018-06-11T10:39:48.754Z,31.80
2018-06-11T10:42:30.272Z,32.50
2018-06-11T10:45:12.367Z,32.70
2018-06-11T10:47:44.629Z,31.80
2018-06-11T10:50:29.001Z,32.10
2018-06-11T10:53:10.954Z,33.10
2018-06-11T10:55:49.183Z,33.50
2018-06-11T10:58:35.323Z,34.30
2018-06-11T11:01:23.166Z,34.60
2018-06-11T11:04:04.907Z,34.70
2018-06-11T11:06:37.482Z,34.60
2018-06-11T11:09:10.776Z,35.00
2018-06-11T11:11:41.073Z,35.70
2018-06-11T11:14:10.532Z,35.00
2018-06-11T11:16:40.748Z,34.40
2018-06-11T11:19:17.925Z,33.60
2018-06-11T11:21:54.174Z,33.50
2018-06-11T11:24:24.753Z,33.80
2018-06-11T11:26:56.504Z,34.00
2018-06-11T11:29:26.267Z,34.40
2018-06-11T11:31:57.032Z,35.20
2018-06-11T11:34:27.966Z,35.50
2018-06-11T11:36:58.737Z,36.20
2018-06-11T11:39:28.437Z,35.60
2018-06-11T11:42:17.087Z,34.70
2018-06-11T11:44:54.912Z,33.70
2018-06-11T11:47:24.749Z,33.80
2018-06-11T11:49:54.443Z,33.90
2018-06-11T11:52:27.259Z,34.40
2018-06-11T11:54:57.695Z,33.70
2018-06-11T11:57:35.152Z,33.30
2018-06-11T12:00:13.684Z,33.20
2018-06-11T12:02:43.309Z,33.70
2018-06-11T12:05:16.943Z,34.20
2018-06-11T12:07:46.795Z,34.30
2018-06-11T12:10:16.303Z,35.50
2018-06-11T12:12:46.544Z,35.10
2018-06-11T12:15:16.081Z,34.60
2018-06-11T12:17:45.765Z,34.40
2018-06-11T12:20:20.460Z,34.70
2018-06-11T12:22:52.374Z,34.50
2018-06-11T12:25:22.193Z,33.90
2018-06-11T12:27:52.325Z,32.10
2018-06-11T12:30:26.218Z,30.70
2018-06-11T12:32:55.600Z,30.50
2018-06-11T12:35:26.729Z,30.40
2018-06-11T12:38:03.572Z,30.80
2018-06-11T12:40:38.245Z,30.70
2018-06-11T12:43:08.553Z,30.90
2018-06-11T12:45:41.190Z,31.90
2018-06-11T12:48:11.522Z,32.60
2018-06-11T12:50:44.566Z,32.40
2018-06-11T12:53:14.982Z,32.10
2018-06-11T12:55:47.182Z,31.70
2018-06-11T12:58:16.716Z,31.40
2018-06-11T13:00:48.007Z,31.50
2018-06-11T13:03:24.588Z,31.30
2018-06-11T13:05:54.276Z,30.90
2018-06-11T13:08:26.027Z,30.10
2018-06-11T13:10:56.267Z,29.90
2018-06-11T13:13:26.138Z,29.90
2018-06-11T13:15:57.531Z,29.50
2018-06-11T13:18:28.027Z,29.30
2018-06-11T13:20:57.754Z,29.20
2018-06-11T13:23:29.790Z,29.30
2018-06-11T13:26:01.004Z,29.20
2018-06-11T13:28:31.835Z,28.90
2018-06-11T13:31:11.279Z,28.30
2018-06-11T13:33:41.058Z,28.20
2018-06-11T13:36:11.690Z,27.90
2018-06-11T13:38:43.320Z,27.70
2018-06-11T13:41:13.023Z,27.80
2018-06-11T13:43:42.816Z,27.80
2018-06-11T13:46:14.096Z,27.90
2018-06-11T13:48:43.937Z,28.10
2018-06-11T13:51:14.177Z,28.20
2018-06-11T13:53:43.808Z,28.10
2018-06-11T13:56:13.844Z,28.00
2018-06-11T13:58:43.004Z,28.00
2018-06-11T14:01:12.832Z,27.90
2018-06-11T14:03:42.018Z,27.50
2018-06-11T14:06:13.620Z,27.30
2018-06-11T14:08:43.176Z,27.30
2018-06-11T14:11:32.505Z,27.20
2018-06-11T14:14:12.019Z,27.20
2018-06-11T14:16:42.769Z,27.10
2018-06-11T14:19:14.043Z,27.10
2018-06-11T14:21:52.949Z,26.80
2018-06-11T14:24:24.419Z,26.60
2018-06-11T14:27:04.999Z,26.40
2018-06-11T14:29:44.509Z,26.30
2018-06-11T14:32:14.559Z,26.30
2018-06-11T14:36:14.180Z,26.20
2018-06-11T14:38:53.821Z,26.20
2018-06-11T14:41:27.487Z,26.00
2018-06-11T14:43:58.052Z,26.00
2018-06-11T14:46:49.089Z,25.70
2018-06-11T14:49:47.698Z,25.70
2018-06-11T14:52:18.899Z,25.80
2018-06-11T14:54:51.737Z,25.90
2018-06-11T14:57:22.388Z,25.90
2018-06-11T14:59:54.270Z,25.70
2018-06-11T15:02:26.335Z,25.90
2018-06-11T15:05:02.297Z,25.70
2018-06-11T15:07:37.782Z,25.60
2018-06-11T15:10:10.712Z,25.30
2018-06-11T15:12:57.331Z,25.10
2018-06-11T15:16:08.940Z,25.20
2018-06-11T15:19:05.635Z,25.20
2018-06-11T15:25:50.562Z,25.30
2018-06-11T15:28:39.600Z,25.40
2018-06-11T15:31:20.993Z,25.20
2018-06-11T15:33:52.934Z,25.40
2018-06-11T15:36:24.201Z,25.50
2018-06-11T15:38:55.221Z,25.50
2018-06-11T15:41:30.150Z,25.40
2018-06-11T15:44:05.556Z,25.30
2018-06-11T15:49:51.067Z,25.40
2018-06-11T15:52:29.027Z,25.50
2018-06-11T15:55:06.228Z,25.20
2018-06-11T15:57:41.172Z,25.20
2018-06-11T16:00:15.935Z,25.20
2018-06-11T16:02:45.702Z,25.30
2018-06-11T16:05:15.730Z,25.40
2018-06-11T16:07:45.809Z,25.50
2018-06-11T16:10:17.110Z,25.60
2018-06-11T16:12:49.272Z,25.60
2018-06-11T16:15:23.776Z,25.40
2018-06-11T16:18:17.774Z,25.30
2018-06-11T16:21:07.653Z,25.10
2018-06-11T16:23:38.994Z,25.10
2018-06-11T16:26:09.279Z,25.00
2018-06-11T16:28:50.495Z,24.90
2018-06-11T16:31:21.443Z,24.90
2018-06-11T16:33:58.809Z,24.70
2018-06-11T16:36:34.181Z,24.70
2018-06-11T16:39:08.725Z,24.80
2018-06-11T16:41:44.567Z,24.80
2018-06-11T16:44:17.710Z,24.80
2018-06-11T16:46:49.896Z,24.70
2018-06-11T16:49:37.535Z,24.70
2018-06-11T16:52:16.846Z,24.70
2018-06-11T16:54:46.922Z,24.90
2018-06-11T16:57:20.300Z,25.00
2018-06-11T16:59:52.785Z,25.10
2018-06-11T17:02:23.122Z,25.00
2018-06-11T17:04:57.507Z,24.80
2018-06-11T17:07:29.995Z,24.60
2018-06-11T17:10:00.811Z,24.60
2018-06-11T17:12:33.288Z,24.50
2018-06-11T17:15:05.158Z,24.40
2018-06-11T17:17:42.240Z,24.40
2018-06-11T17:20:28.493Z,24.40
2018-06-11T17:22:59.329Z,24.30
2018-06-11T17:25:31.044Z,24.20
2018-06-11T17:28:03.650Z,24.10
2018-06-11T17:30:34.539Z,24.10
2018-06-11T17:33:05.260Z,24.10
2018-06-11T17:35:37.738Z,24.10
2018-06-11T17:38:14.054Z,24.00
2018-06-11T17:41:01.828Z,24.00
2018-06-11T17:44:00.068Z,24.00
2018-06-11T17:48:00.772Z,23.80
2018-06-11T17:50:32.161Z,23.80
2018-06-11T17:53:04.773Z,23.80
2018-06-11T17:55:47.900Z,23.80
2018-06-11T17:58:22.942Z,23.70
2018-06-11T18:01:22.374Z,23.60
2018-06-11T18:04:10.258Z,23.50
2018-06-11T18:06:47.065Z,23.50
2018-06-11T18:09:18.111Z,23.40
2018-06-11T18:11:48.238Z,23.30
2018-06-11T18:14:20.671Z,23.30
2018-06-11T18:17:43.268Z,23.10
2018-06-11T18:20:18.978Z,23.10
2018-06-11T18:22:56.123Z,23.00
2018-06-11T18:25:28.439Z,23.10
2018-06-11T18:28:10.646Z,23.20
2018-06-11T18:30:45.421Z,23.20
2018-06-11T18:33:22.816Z,23.10
2018-06-11T18:35:54.289Z,23.00
2018-06-11T18:38:27.412Z,22.90
2018-06-11T18:40:59.955Z,22.80
2018-06-11T18:43:37.944Z,22.70
2018-06-11T18:46:18.807Z,22.80
2018-06-11T18:48:52.840Z,22.70
2018-06-11T18:51:22.946Z,22.80
2018-06-11T18:53:53.806Z,22.80
2018-06-11T18:56:32.922Z,22.80
2018-06-11T18:59:10.320Z,22.80
2018-06-11T19:01:43.929Z,22.80
2018-06-11T19:04:15.101Z,22.80
2018-06-11T19:06:46.079Z,22.90
2018-06-11T19:09:18.400Z,23.00
2018-06-11T19:11:54.654Z,23.00
2018-06-11T19:14:25.968Z,23.10
2018-06-11T19:16:59.062Z,23.20
2018-06-11T19:19:28.810Z,23.20
2018-06-11T19:22:03.838Z,23.30
2018-06-11T19:24:34.695Z,23.30
2018-06-11T19:27:04.539Z,23.40
2018-06-11T19:29:34.941Z,23.40
2018-06-11T19:32:06.392Z,23.20
2018-06-11T19:34:36.504Z,23.10
2018-06-11T19:37:06.752Z,22.90
2018-06-11T19:39:46.122Z,22.90
2018-06-11T19:42:15.979Z,22.90
2018-06-11T19:44:47.812Z,22.90
2018-06-11T19:47:22.391Z,22.80
2018-06-11T19:49:54.219Z,22.80
2018-06-11T19:52:24.513Z,22.70
2018-06-11T19:54:54.412Z,22.70
2018-06-11T19:57:24.443Z,22.70
2018-06-11T19:59:55.237Z,22.80
2018-06-11T20:02:24.936Z,22.80
2018-06-11T20:07:35.237Z,22.90
2018-06-11T20:10:05.658Z,22.90
2018-06-11T20:12:43.532Z,22.90
2018-06-11T20:15:17.664Z,23.00
2018-06-11T20:17:47.248Z,23.00
2018-06-11T20:20:17.854Z,22.90
2018-06-11T20:23:06.760Z,22.80
2018-06-11T20:25:50.829Z,23.00
2018-06-11T20:28:28.948Z,23.10
2018-06-11T20:31:14.706Z,23.20
2018-06-11T20:33:45.014Z,23.20
2018-06-11T20:36:15.648Z,23.30
2018-06-11T20:38:55.012Z,23.30
2018-06-11T20:41:29.068Z,23.20
2018-06-11T20:44:13.709Z,23.10
2018-06-11T20:46:46.096Z,23.10
2018-06-11T20:49:16.089Z,23.10
2018-06-11T20:51:45.495Z,23.10
2018-06-11T20:54:20.426Z,23.00
2018-06-11T20:56:57.806Z,23.00
2018-06-11T20:59:38.457Z,23.00
2018-06-11T21:02:09.319Z,22.90
2018-06-11T21:04:48.451Z,22.90
2018-06-11T21:07:28.891Z,22.70
2018-06-11T21:10:01.068Z,22.50
2018-06-11T21:12:30.538Z,22.50
2018-06-11T21:15:00.605Z,22.30
2018-06-11T21:17:33.971Z,22.20
2018-06-11T21:20:07.560Z,22.00
2018-06-11T21:22:38.957Z,22.00
2018-06-11T21:25:12.290Z,21.90
2018-06-11T21:27:41.955Z,21.90
2018-06-11T21:30:14.919Z,21.80
2018-06-11T21:32:44.834Z,21.80
2018-06-11T21:35:17.197Z,21.80
2018-06-11T21:37:47.857Z,21.70
2018-06-11T21:40:29.830Z,21.70
2018-06-11T21:43:00.342Z,21.80
2018-06-11T21:45:32.329Z,21.70
2018-06-11T21:48:02.237Z,21.60
2018-06-11T21:53:08.231Z,21.20
2018-06-11T22:00:36.387Z,20.30
2018-06-11T22:03:06.516Z,20.10
2018-06-11T22:05:36.241Z,19.90
2018-06-11T22:08:05.616Z,19.70
2018-06-11T22:10:36.787Z,19.60
2018-06-11T22:13:06.599Z,19.40
2018-06-11T22:15:48.073Z,19.30
2018-06-11T22:18:17.648Z,19.30
2018-06-11T22:20:47.116Z,19.10
2018-06-11T22:23:16.934Z,19.00
2018-06-11T22:28:31.886Z,18.80
2018-06-11T22:31:13.609Z,18.70
2018-06-11T22:33:49.978Z,18.70
2018-06-11T22:36:27.551Z,18.60
2018-06-11T22:38:57.693Z,18.60
2018-06-11T22:41:28.845Z,18.50
2018-06-11T22:44:00.042Z,18.50
2018-06-11T22:46:34.253Z,18.50
2018-06-11T22:49:03.750Z,18.50
2018-06-11T22:51:36.705Z,18.40
2018-06-11T22:54:06.560Z,18.50
2018-06-11T22:56:37.427Z,18.40
2018-06-11T22:59:12.803Z,18.40
2018-06-11T23:01:43.291Z,18.40
2018-06-11T23:04:15.407Z,18.30
2018-06-11T23:06:50.427Z,18.30
2018-06-11T23:09:26.124Z,18.40
2018-06-11T23:14:55.027Z,18.40
2018-06-11T23:17:36.848Z,18.40
2018-06-11T23:20:15.708Z,18.50
2018-06-11T23:22:45.266Z,18.50
2018-06-11T23:25:14.995Z,18.50
2018-06-11T23:27:44.686Z,18.40
2018-06-11T23:30:14.584Z,18.50
2018-06-11T23:32:44.410Z,18.50
2018-06-11T23:35:20.156Z,18.50
2018-06-11T23:37:51.447Z,18.60
2018-06-11T23:40:22.862Z,18.60
2018-06-11T23:42:54.656Z,18.60
2018-06-11T23:45:27.201Z,18.70
2018-06-11T23:47:58.618Z,18.70
2018-06-11T23:50:27.720Z,18.80
2018-06-11T23:52:59.924Z,18.80
2018-06-11T23:55:29.953Z,18.80
2018-06-11T23:58:00.348Z,18.80
